sensor_id;sensor_type;location;lat;lon;timestamp;P1;durP1;ratioP1;P2;durP2;ratioP2
60919;SDS011;59039;52.108;19.942;2024-02-23T00:01:12;61.40;;;28.30;;
60919;SDS011;59039;52.108;19.942;2024-02-23T00:03:37;38.20;;;19.40;;
60919;SDS011;59039;52.108;19.942;2024-02-23T00:06:03;38.20;;;17.60;;
60919;SDS011;59039;52.108;19.942;2024-02-23T00:08:28;29.10;;;16.10;;
60919;SDS011;59039;52.108;19.942;2024-02-23T00:10:53;29.10;;;14.70;;
60919;SDS011;59039;52.108;19.942;2024-02-23T00:13:19;27.50;;;14.10;;
60919;SDS011;59039;52.108;19.942;2024-02-23T00:15:44;25.10;;;13.40;;
60919;SDS011;59039;52.108;19.942;2024-02-23T00:18:09;24.60;;;14.30;;
60919;SDS011;59039;52.108;19.942;2024-02-23T00:20:34;24.30;;;13.90;;
60919;SDS011;59039;52.108;19.942;2024-02-23T00:23:01;22.50;;;13.40;;
60919;SDS011;59039;52.108;19.942;2024-02-23T00:25:27;20.60;;;12.90;;
60919;SDS011;59039;52.108;19.942;2024-02-23T00:27:52;18.80;;;12.60;;
60919;SDS011;59039;52.108;19.942;2024-02-23T00:30:17;18.40;;;11.50;;
60919;SDS011;59039;52.108;19.942;2024-02-23T00:32:43;18.90;;;12.80;;
60919;SDS011;59039;52.108;19.942;2024-02-23T00:35:08;21.00;;;12.30;;
60919;SDS011;59039;52.108;19.942;2024-02-23T00:37:33;21.80;;;12.70;;
60919;SDS011;59039;52.108;19.942;2024-02-23T00:39:58;18.70;;;11.50;;
60919;SDS011;59039;52.108;19.942;2024-02-23T00:42:23;21.30;;;12.90;;
60919;SDS011;59039;52.108;19.942;2024-02-23T00:44:49;17.60;;;11.60;;
60919;SDS011;59039;52.108;19.942;2024-02-23T00:47:14;23.80;;;12.90;;
60919;SDS011;59039;52.108;19.942;2024-02-23T00:49:39;24.10;;;13.60;;
60919;SDS011;59039;52.108;19.942;2024-02-23T00:52:04;19.50;;;11.80;;
60919;SDS011;59039;52.108;19.942;2024-02-23T00:54:30;20.10;;;12.20;;
60919;SDS011;59039;52.108;19.942;2024-02-23T00:56:55;19.50;;;12.40;;
60919;SDS011;59039;52.108;19.942;2024-02-23T00:59:20;21.30;;;12.30;;
60919;SDS011;59039;52.108;19.942;2024-02-23T01:01:45;20.40;;;12.60;;
60919;SDS011;59039;52.108;19.942;2024-02-23T01:04:10;22.10;;;11.70;;
60919;SDS011;59039;52.108;19.942;2024-02-23T01:06:36;17.90;;;11.70;;
60919;SDS011;59039;52.108;19.942;2024-02-23T01:09:01;16.60;;;10.60;;
60919;SDS011;59039;52.108;19.942;2024-02-23T01:11:26;17.20;;;10.10;;
60919;SDS011;59039;52.108;19.942;2024-02-23T01:13:51;17.60;;;10.50;;
60919;SDS011;59039;52.108;19.942;2024-02-23T01:16:16;15.60;;;9.50;;
60919;SDS011;59039;52.108;19.942;2024-02-23T01:18:42;15.70;;;9.30;;
60919;SDS011;59039;52.108;19.942;2024-02-23T01:21:07;15.30;;;10.00;;
60919;SDS011;59039;52.108;19.942;2024-02-23T01:23:33;17.10;;;10.50;;
60919;SDS011;59039;52.108;19.942;2024-02-23T01:25:58;17.20;;;10.80;;
60919;SDS011;59039;52.108;19.942;2024-02-23T01:28:23;15.10;;;8.90;;
60919;SDS011;59039;52.108;19.942;2024-02-23T01:30:48;18.70;;;10.20;;
60919;SDS011;59039;52.108;19.942;2024-02-23T01:33:14;14.10;;;8.80;;
60919;SDS011;59039;52.108;19.942;2024-02-23T01:35:39;20.00;;;11.20;;
60919;SDS011;59039;52.108;19.942;2024-02-23T01:38:04;19.40;;;10.70;;
60919;SDS011;59039;52.108;19.942;2024-02-23T01:40:29;20.50;;;10.60;;
60919;SDS011;59039;52.108;19.942;2024-02-23T01:43:01;17.70;;;10.40;;
60919;SDS011;59039;52.108;19.942;2024-02-23T01:45:30;19.30;;;10.70;;
60919;SDS011;59039;52.108;19.942;2024-02-23T01:47:56;14.70;;;8.90;;
60919;SDS011;59039;52.108;19.942;2024-02-23T01:50:23;20.30;;;10.50;;
60919;SDS011;59039;52.108;19.942;2024-02-23T01:52:49;16.20;;;9.70;;
60919;SDS011;59039;52.108;19.942;2024-02-23T01:55:14;14.90;;;9.30;;
60919;SDS011;59039;52.108;19.942;2024-02-23T01:57:39;15.00;;;9.80;;
60919;SDS011;59039;52.108;19.942;2024-02-23T02:00:05;15.10;;;9.40;;
60919;SDS011;59039;52.108;19.942;2024-02-23T02:02:32;17.00;;;9.30;;
60919;SDS011;59039;52.108;19.942;2024-02-23T02:04:58;15.80;;;9.30;;
60919;SDS011;59039;52.108;19.942;2024-02-23T02:07:23;14.90;;;9.30;;
60919;SDS011;59039;52.108;19.942;2024-02-23T02:09:49;15.40;;;9.50;;
60919;SDS011;59039;52.108;19.942;2024-02-23T02:12:14;18.80;;;9.30;;
60919;SDS011;59039;52.108;19.942;2024-02-23T02:14:39;14.20;;;9.30;;
60919;SDS011;59039;52.108;19.942;2024-02-23T02:17:04;12.40;;;8.70;;
60919;SDS011;59039;52.108;19.942;2024-02-23T02:19:29;13.60;;;8.50;;
60919;SDS011;59039;52.108;19.942;2024-02-23T02:21:55;13.10;;;9.20;;
60919;SDS011;59039;52.108;19.942;2024-02-23T02:24:21;17.40;;;9.40;;
60919;SDS011;59039;52.108;19.942;2024-02-23T02:26:46;14.60;;;8.40;;
60919;SDS011;59039;52.108;19.942;2024-02-23T02:29:13;13.80;;;8.70;;
60919;SDS011;59039;52.108;19.942;2024-02-23T02:31:38;16.40;;;9.10;;
60919;SDS011;59039;52.108;19.942;2024-02-23T02:34:04;14.10;;;9.70;;
60919;SDS011;59039;52.108;19.942;2024-02-23T02:36:29;14.80;;;9.90;;
60919;SDS011;59039;52.108;19.942;2024-02-23T02:38:54;15.90;;;10.80;;
60919;SDS011;59039;52.108;19.942;2024-02-23T02:41:20;15.90;;;9.90;;
60919;SDS011;59039;52.108;19.942;2024-02-23T02:43:49;17.30;;;10.80;;
60919;SDS011;59039;52.108;19.942;2024-02-23T02:46:15;12.40;;;9.70;;
60919;SDS011;59039;52.108;19.942;2024-02-23T02:48:40;19.00;;;11.20;;
60919;SDS011;59039;52.108;19.942;2024-02-23T02:51:05;16.20;;;10.10;;
60919;SDS011;59039;52.108;19.942;2024-02-23T02:53:30;17.00;;;10.10;;
60919;SDS011;59039;52.108;19.942;2024-02-23T02:55:55;17.20;;;10.60;;
60919;SDS011;59039;52.108;19.942;2024-02-23T02:58:21;16.10;;;10.50;;
60919;SDS011;59039;52.108;19.942;2024-02-23T03:00:46;19.30;;;12.00;;
60919;SDS011;59039;52.108;19.942;2024-02-23T03:03:11;19.60;;;13.00;;
60919;SDS011;59039;52.108;19.942;2024-02-23T03:05:36;19.70;;;12.70;;
60919;SDS011;59039;52.108;19.942;2024-02-23T03:08:01;19.80;;;13.00;;
60919;SDS011;59039;52.108;19.942;2024-02-23T03:10:27;19.10;;;11.90;;
60919;SDS011;59039;52.108;19.942;2024-02-23T03:12:52;17.30;;;11.60;;
60919;SDS011;59039;52.108;19.942;2024-02-23T03:15:17;19.20;;;12.60;;
60919;SDS011;59039;52.108;19.942;2024-02-23T03:17:42;16.80;;;11.20;;
60919;SDS011;59039;52.108;19.942;2024-02-23T03:20:08;20.10;;;11.80;;
60919;SDS011;59039;52.108;19.942;2024-02-23T03:22:34;23.70;;;15.30;;
60919;SDS011;59039;52.108;19.942;2024-02-23T03:25:00;26.30;;;14.60;;
60919;SDS011;59039;52.108;19.942;2024-02-23T03:27:27;23.50;;;14.50;;
60919;SDS011;59039;52.108;19.942;2024-02-23T03:29:53;18.50;;;13.20;;
60919;SDS011;59039;52.108;19.942;2024-02-23T03:32:19;20.80;;;13.20;;
60919;SDS011;59039;52.108;19.942;2024-02-23T03:34:44;21.40;;;14.60;;
60919;SDS011;59039;52.108;19.942;2024-02-23T03:37:09;20.30;;;14.40;;
60919;SDS011;59039;52.108;19.942;2024-02-23T03:39:34;21.90;;;13.60;;
60919;SDS011;59039;52.108;19.942;2024-02-23T03:41:59;16.00;;;10.70;;
60919;SDS011;59039;52.108;19.942;2024-02-23T03:44:25;16.80;;;11.80;;
60919;SDS011;59039;52.108;19.942;2024-02-23T03:46:50;17.20;;;11.50;;
60919;SDS011;59039;52.108;19.942;2024-02-23T03:49:15;14.50;;;10.70;;
60919;SDS011;59039;52.108;19.942;2024-02-23T06:26:07;17.10;;;12.70;;
60919;SDS011;59039;52.108;19.942;2024-02-23T06:28:32;18.20;;;13.20;;
60919;SDS011;59039;52.108;19.942;2024-02-23T06:30:58;19.70;;;14.00;;
60919;SDS011;59039;52.108;19.942;2024-02-23T06:33:23;17.50;;;12.50;;
60919;SDS011;59039;52.108;19.942;2024-02-23T06:35:48;17.90;;;11.50;;
60919;SDS011;59039;52.108;19.942;2024-02-23T06:38:13;21.10;;;12.40;;
60919;SDS011;59039;52.108;19.942;2024-02-23T06:40:39;19.80;;;14.00;;
60919;SDS011;59039;52.108;19.942;2024-02-23T06:43:04;18.10;;;12.80;;
60919;SDS011;59039;52.108;19.942;2024-02-23T06:45:29;20.40;;;13.60;;
60919;SDS011;59039;52.108;19.942;2024-02-23T06:47:54;25.80;;;15.90;;
60919;SDS011;59039;52.108;19.942;2024-02-23T06:50:19;25.60;;;14.50;;
60919;SDS011;59039;52.108;19.942;2024-02-23T06:52:45;18.00;;;11.90;;
60919;SDS011;59039;52.108;19.942;2024-02-23T06:55:10;20.60;;;11.60;;
60919;SDS011;59039;52.108;19.942;2024-02-23T06:57:35;22.30;;;13.10;;
60919;SDS011;59039;52.108;19.942;2024-02-23T07:00:00;27.20;;;14.20;;
60919;SDS011;59039;52.108;19.942;2024-02-23T07:02:26;24.10;;;13.10;;
60919;SDS011;59039;52.108;19.942;2024-02-23T07:04:51;19.70;;;12.50;;
60919;SDS011;59039;52.108;19.942;2024-02-23T07:07:16;23.60;;;13.50;;
60919;SDS011;59039;52.108;19.942;2024-02-23T07:09:41;19.50;;;11.50;;
60919;SDS011;59039;52.108;19.942;2024-02-23T07:12:06;19.60;;;11.60;;
60919;SDS011;59039;52.108;19.942;2024-02-23T07:14:32;18.50;;;11.80;;
60919;SDS011;59039;52.108;19.942;2024-02-23T07:16:57;18.30;;;10.90;;
60919;SDS011;59039;52.108;19.942;2024-02-23T07:19:22;18.10;;;11.40;;
60919;SDS011;59039;52.108;19.942;2024-02-23T07:21:47;20.80;;;12.70;;
60919;SDS011;59039;52.108;19.942;2024-02-23T07:24:13;20.30;;;12.70;;
60919;SDS011;59039;52.108;19.942;2024-02-23T07:26:38;19.80;;;12.10;;
60919;SDS011;59039;52.108;19.942;2024-02-23T07:29:03;18.10;;;11.70;;
60919;SDS011;59039;52.108;19.942;2024-02-23T07:31:29;17.10;;;11.40;;
60919;SDS011;59039;52.108;19.942;2024-02-23T07:33:54;16.50;;;10.40;;
60919;SDS011;59039;52.108;19.942;2024-02-23T07:36:20;19.90;;;12.60;;
60919;SDS011;59039;52.108;19.942;2024-02-23T07:38:45;21.70;;;13.60;;
60919;SDS011;59039;52.108;19.942;2024-02-23T07:41:11;23.50;;;12.60;;
60919;SDS011;59039;52.108;19.942;2024-02-23T07:43:36;19.90;;;12.10;;
60919;SDS011;59039;52.108;19.942;2024-02-23T07:46:02;20.70;;;13.80;;
60919;SDS011;59039;52.108;19.942;2024-02-23T07:48:27;22.40;;;14.60;;
60919;SDS011;59039;52.108;19.942;2024-02-23T07:50:52;20.30;;;13.50;;
60919;SDS011;59039;52.108;19.942;2024-02-23T07:53:18;20.60;;;13.70;;
60919;SDS011;59039;52.108;19.942;2024-02-23T07:55:43;25.00;;;15.10;;
60919;SDS011;59039;52.108;19.942;2024-02-23T07:58:08;20.50;;;12.30;;
60919;SDS011;59039;52.108;19.942;2024-02-23T08:00:33;17.90;;;10.80;;
60919;SDS011;59039;52.108;19.942;2024-02-23T08:02:58;17.30;;;10.80;;
60919;SDS011;59039;52.108;19.942;2024-02-23T08:05:24;15.70;;;11.10;;
60919;SDS011;59039;52.108;19.942;2024-02-23T08:07:49;16.00;;;11.20;;
60919;SDS011;59039;52.108;19.942;2024-02-23T08:10:14;16.60;;;11.20;;
60919;SDS011;59039;52.108;19.942;2024-02-23T08:12:39;20.30;;;13.00;;
60919;SDS011;59039;52.108;19.942;2024-02-23T08:15:05;20.30;;;13.60;;
60919;SDS011;59039;52.108;19.942;2024-02-23T08:17:31;20.10;;;14.00;;
60919;SDS011;59039;52.108;19.942;2024-02-23T08:19:56;19.40;;;11.60;;
60919;SDS011;59039;52.108;19.942;2024-02-23T08:22:21;15.90;;;10.70;;
60919;SDS011;59039;52.108;19.942;2024-02-23T08:24:46;22.30;;;13.00;;
60919;SDS011;59039;52.108;19.942;2024-02-23T08:27:12;19.10;;;12.20;;
60919;SDS011;59039;52.108;19.942;2024-02-23T08:29:37;17.70;;;11.50;;
60919;SDS011;59039;52.108;19.942;2024-02-23T08:32:03;19.30;;;12.50;;
60919;SDS011;59039;52.108;19.942;2024-02-23T08:34:28;21.00;;;12.40;;
60919;SDS011;59039;52.108;19.942;2024-02-23T08:36:53;19.70;;;12.10;;
60919;SDS011;59039;52.108;19.942;2024-02-23T08:39:19;15.90;;;10.80;;
60919;SDS011;59039;52.108;19.942;2024-02-23T08:41:44;18.00;;;11.20;;
60919;SDS011;59039;52.108;19.942;2024-02-23T08:44:09;19.00;;;11.70;;
60919;SDS011;59039;52.108;19.942;2024-02-23T08:46:34;17.60;;;10.70;;
60919;SDS011;59039;52.108;19.942;2024-02-23T08:48:59;20.90;;;12.30;;
60919;SDS011;59039;52.108;19.942;2024-02-23T08:51:25;18.00;;;11.50;;
60919;SDS011;59039;52.108;19.942;2024-02-23T08:53:50;22.40;;;14.50;;
60919;SDS011;59039;52.108;19.942;2024-02-23T08:56:15;20.70;;;13.10;;
60919;SDS011;59039;52.108;19.942;2024-02-23T08:58:40;19.20;;;12.90;;
60919;SDS011;59039;52.108;19.942;2024-02-23T09:01:05;21.60;;;12.90;;
60919;SDS011;59039;52.108;19.942;2024-02-23T09:03:31;19.30;;;12.50;;
60919;SDS011;59039;52.108;19.942;2024-02-23T09:05:56;18.80;;;11.60;;
60919;SDS011;59039;52.108;19.942;2024-02-23T09:08:21;20.60;;;12.00;;
60919;SDS011;59039;52.108;19.942;2024-02-23T09:10:47;21.10;;;12.40;;
60919;SDS011;59039;52.108;19.942;2024-02-23T09:13:12;18.80;;;13.30;;
60919;SDS011;59039;52.108;19.942;2024-02-23T09:15:37;20.60;;;13.30;;
60919;SDS011;59039;52.108;19.942;2024-02-23T09:18:03;18.40;;;12.50;;
60919;SDS011;59039;52.108;19.942;2024-02-23T09:20:28;20.90;;;13.10;;
60919;SDS011;59039;52.108;19.942;2024-02-23T09:22:53;22.50;;;14.20;;
60919;SDS011;59039;52.108;19.942;2024-02-23T09:25:19;22.60;;;14.90;;
60919;SDS011;59039;52.108;19.942;2024-02-23T09:27:44;22.10;;;14.60;;
60919;SDS011;59039;52.108;19.942;2024-02-23T09:30:12;22.40;;;13.80;;
60919;SDS011;59039;52.108;19.942;2024-02-23T09:32:38;21.50;;;14.50;;
60919;SDS011;59039;52.108;19.942;2024-02-23T09:35:03;23.10;;;13.90;;
60919;SDS011;59039;52.108;19.942;2024-02-23T09:37:29;20.70;;;14.30;;
60919;SDS011;59039;52.108;19.942;2024-02-23T09:39:55;18.30;;;13.10;;
60919;SDS011;59039;52.108;19.942;2024-02-23T09:42:21;19.30;;;13.20;;
60919;SDS011;59039;52.108;19.942;2024-02-23T09:44:47;19.90;;;13.80;;
60919;SDS011;59039;52.108;19.942;2024-02-23T09:47:18;19.00;;;12.00;;
60919;SDS011;59039;52.108;19.942;2024-02-23T09:49:43;19.20;;;12.70;;
60919;SDS011;59039;52.108;19.942;2024-02-23T09:52:09;19.00;;;12.50;;
60919;SDS011;59039;52.108;19.942;2024-02-23T09:54:35;17.10;;;12.80;;
60919;SDS011;59039;52.108;19.942;2024-02-23T09:57:02;17.30;;;11.90;;
60919;SDS011;59039;52.108;19.942;2024-02-23T09:59:34;17.80;;;12.60;;
60919;SDS011;59039;52.108;19.942;2024-02-23T10:02:00;20.00;;;13.20;;
60919;SDS011;59039;52.108;19.942;2024-02-23T10:04:27;21.30;;;13.50;;
60919;SDS011;59039;52.108;19.942;2024-02-23T10:06:52;19.60;;;12.80;;
60919;SDS011;59039;52.108;19.942;2024-02-23T10:09:17;19.00;;;13.00;;
60919;SDS011;59039;52.108;19.942;2024-02-23T10:11:42;16.20;;;12.20;;
60919;SDS011;59039;52.108;19.942;2024-02-23T10:14:08;18.90;;;13.50;;
60919;SDS011;59039;52.108;19.942;2024-02-23T10:16:33;17.20;;;12.40;;
60919;SDS011;59039;52.108;19.942;2024-02-23T10:18:58;17.40;;;11.90;;
60919;SDS011;59039;52.108;19.942;2024-02-23T10:21:23;18.00;;;11.20;;
60919;SDS011;59039;52.108;19.942;2024-02-23T10:23:49;18.80;;;12.30;;
60919;SDS011;59039;52.108;19.942;2024-02-23T10:26:14;17.50;;;12.00;;
60919;SDS011;59039;52.108;19.942;2024-02-23T10:28:39;19.30;;;13.60;;
60919;SDS011;59039;52.108;19.942;2024-02-23T10:31:05;23.20;;;15.00;;
60919;SDS011;59039;52.108;19.942;2024-02-23T10:33:31;20.50;;;14.30;;
60919;SDS011;59039;52.108;19.942;2024-02-23T10:35:56;28.10;;;16.00;;
60919;SDS011;59039;52.108;19.942;2024-02-23T10:38:22;24.80;;;14.90;;
60919;SDS011;59039;52.108;19.942;2024-02-23T10:40:48;18.90;;;13.60;;
60919;SDS011;59039;52.108;19.942;2024-02-23T10:43:16;24.70;;;18.70;;
60919;SDS011;59039;52.108;19.942;2024-02-23T10:45:44;21.70;;;15.40;;
60919;SDS011;59039;52.108;19.942;2024-02-23T10:48:11;34.30;;;17.70;;
60919;SDS011;59039;52.108;19.942;2024-02-23T10:50:36;31.20;;;15.10;;
60919;SDS011;59039;52.108;19.942;2024-02-23T10:53:07;21.40;;;12.50;;
60919;SDS011;59039;52.108;19.942;2024-02-23T10:55:32;21.20;;;12.90;;
60919;SDS011;59039;52.108;19.942;2024-02-23T10:57:58;19.30;;;13.60;;
60919;SDS011;59039;52.108;19.942;2024-02-23T11:00:24;20.00;;;13.50;;
60919;SDS011;59039;52.108;19.942;2024-02-23T11:02:50;20.20;;;13.40;;
60919;SDS011;59039;52.108;19.942;2024-02-23T11:05:18;24.30;;;15.00;;
60919;SDS011;59039;52.108;19.942;2024-02-23T11:07:45;28.40;;;16.60;;
60919;SDS011;59039;52.108;19.942;2024-02-23T11:10:13;22.10;;;14.90;;
60919;SDS011;59039;52.108;19.942;2024-02-23T11:12:38;21.70;;;13.50;;
60919;SDS011;59039;52.108;19.942;2024-02-23T11:15:04;20.90;;;13.60;;
60919;SDS011;59039;52.108;19.942;2024-02-23T11:17:30;19.80;;;13.40;;
60919;SDS011;59039;52.108;19.942;2024-02-23T11:19:57;23.00;;;14.50;;
60919;SDS011;59039;52.108;19.942;2024-02-23T11:22:29;22.90;;;14.50;;
60919;SDS011;59039;52.108;19.942;2024-02-23T11:24:59;22.10;;;14.60;;
60919;SDS011;59039;52.108;19.942;2024-02-23T11:27:29;20.50;;;13.50;;
60919;SDS011;59039;52.108;19.942;2024-02-23T11:30:03;23.30;;;14.20;;
60919;SDS011;59039;52.108;19.942;2024-02-23T11:32:38;24.20;;;15.10;;
60919;SDS011;59039;52.108;19.942;2024-02-23T11:35:06;31.20;;;16.40;;
60919;SDS011;59039;52.108;19.942;2024-02-23T11:37:32;28.60;;;16.40;;
60919;SDS011;59039;52.108;19.942;2024-02-23T11:39:57;32.70;;;16.70;;
60919;SDS011;59039;52.108;19.942;2024-02-23T11:42:26;38.70;;;18.10;;
60919;SDS011;59039;52.108;19.942;2024-02-23T11:44:52;34.10;;;17.40;;
60919;SDS011;59039;52.108;19.942;2024-02-23T11:47:18;27.50;;;15.50;;
60919;SDS011;59039;52.108;19.942;2024-02-23T11:49:43;21.40;;;13.80;;
60919;SDS011;59039;52.108;19.942;2024-02-23T11:52:09;23.90;;;14.00;;
60919;SDS011;59039;52.108;19.942;2024-02-23T11:54:35;22.00;;;14.20;;
60919;SDS011;59039;52.108;19.942;2024-02-23T11:57:00;19.50;;;13.80;;
60919;SDS011;59039;52.108;19.942;2024-02-23T11:59:25;21.60;;;13.40;;
60919;SDS011;59039;52.108;19.942;2024-02-23T12:01:51;19.90;;;14.50;;
60919;SDS011;59039;52.108;19.942;2024-02-23T12:04:16;19.90;;;13.70;;
60919;SDS011;59039;52.108;19.942;2024-02-23T12:06:44;19.00;;;13.60;;
60919;SDS011;59039;52.108;19.942;2024-02-23T12:09:09;26.00;;;15.20;;
60919;SDS011;59039;52.108;19.942;2024-02-23T12:11:35;29.00;;;18.10;;
60919;SDS011;59039;52.108;19.942;2024-02-23T12:14:01;31.60;;;20.60;;
60919;SDS011;59039;52.108;19.942;2024-02-23T12:16:26;29.50;;;18.20;;
60919;SDS011;59039;52.108;19.942;2024-02-23T12:18:57;22.50;;;14.10;;
60919;SDS011;59039;52.108;19.942;2024-02-23T12:21:23;22.30;;;13.20;;
60919;SDS011;59039;52.108;19.942;2024-02-23T12:23:49;27.30;;;15.60;;
60919;SDS011;59039;52.108;19.942;2024-02-23T12:26:18;28.60;;;15.50;;
60919;SDS011;59039;52.108;19.942;2024-02-23T12:28:43;22.70;;;14.30;;
60919;SDS011;59039;52.108;19.942;2024-02-23T12:31:09;24.20;;;14.10;;
60919;SDS011;59039;52.108;19.942;2024-02-23T12:33:35;21.00;;;13.20;;
60919;SDS011;59039;52.108;19.942;2024-02-23T12:36:02;21.80;;;13.50;;
60919;SDS011;59039;52.108;19.942;2024-02-23T12:38:29;21.70;;;13.40;;
60919;SDS011;59039;52.108;19.942;2024-02-23T12:40:54;18.70;;;12.80;;
60919;SDS011;59039;52.108;19.942;2024-02-23T12:43:19;22.30;;;14.90;;
60919;SDS011;59039;52.108;19.942;2024-02-23T12:45:45;22.80;;;14.80;;
60919;SDS011;59039;52.108;19.942;2024-02-23T12:48:10;22.30;;;15.20;;
60919;SDS011;59039;52.108;19.942;2024-02-23T12:50:36;32.40;;;18.70;;
60919;SDS011;59039;52.108;19.942;2024-02-23T12:53:01;35.80;;;22.90;;
60919;SDS011;59039;52.108;19.942;2024-02-23T12:55:26;46.50;;;25.30;;
60919;SDS011;59039;52.108;19.942;2024-02-23T12:57:51;40.70;;;21.50;;
60919;SDS011;59039;52.108;19.942;2024-02-23T13:00:17;37.20;;;21.10;;
60919;SDS011;59039;52.108;19.942;2024-02-23T13:02:42;34.40;;;20.20;;
60919;SDS011;59039;52.108;19.942;2024-02-23T13:05:07;34.30;;;19.00;;
60919;SDS011;59039;52.108;19.942;2024-02-23T13:07:33;43.30;;;24.80;;
60919;SDS011;59039;52.108;19.942;2024-02-23T13:09:58;62.40;;;33.00;;
60919;SDS011;59039;52.108;19.942;2024-02-23T13:12:23;50.20;;;27.80;;
60919;SDS011;59039;52.108;19.942;2024-02-23T13:14:48;48.50;;;27.40;;
60919;SDS011;59039;52.108;19.942;2024-02-23T13:17:13;47.20;;;26.40;;
60919;SDS011;59039;52.108;19.942;2024-02-23T13:19:39;41.30;;;22.70;;
60919;SDS011;59039;52.108;19.942;2024-02-23T13:22:04;34.30;;;20.80;;
60919;SDS011;59039;52.108;19.942;2024-02-23T13:24:29;54.70;;;34.00;;
60919;SDS011;59039;52.108;19.942;2024-02-23T13:26:54;56.90;;;33.80;;
60919;SDS011;59039;52.108;19.942;2024-02-23T13:29:19;55.30;;;32.80;;
60919;SDS011;59039;52.108;19.942;2024-02-23T13:31:45;45.10;;;30.00;;
60919;SDS011;59039;52.108;19.942;2024-02-23T13:34:10;40.90;;;29.00;;
60919;SDS011;59039;52.108;19.942;2024-02-23T13:36:35;46.90;;;33.20;;
60919;SDS011;59039;52.108;19.942;2024-02-23T13:39:00;55.80;;;34.80;;
60919;SDS011;59039;52.108;19.942;2024-02-23T13:41:25;51.00;;;35.60;;
60919;SDS011;59039;52.108;19.942;2024-02-23T13:43:51;69.90;;;37.40;;
60919;SDS011;59039;52.108;19.942;2024-02-23T13:46:16;80.30;;;39.10;;
60919;SDS011;59039;52.108;19.942;2024-02-23T13:48:41;60.60;;;31.40;;
60919;SDS011;59039;52.108;19.942;2024-02-23T13:51:06;59.90;;;29.90;;
60919;SDS011;59039;52.108;19.942;2024-02-23T13:53:32;50.70;;;23.50;;
60919;SDS011;59039;52.108;19.942;2024-02-23T13:55:57;71.30;;;31.20;;
60919;SDS011;59039;52.108;19.942;2024-02-23T13:58:23;86.50;;;35.60;;
60919;SDS011;59039;52.108;19.942;2024-02-23T14:00:49;86.00;;;36.70;;
60919;SDS011;59039;52.108;19.942;2024-02-23T14:03:15;103.80;;;45.90;;
60919;SDS011;59039;52.108;19.942;2024-02-23T14:05:41;110.00;;;56.50;;
60919;SDS011;59039;52.108;19.942;2024-02-23T14:08:07;103.20;;;53.60;;
60919;SDS011;59039;52.108;19.942;2024-02-23T14:10:32;89.30;;;50.80;;
60919;SDS011;59039;52.108;19.942;2024-02-23T14:12:57;69.20;;;44.30;;
60919;SDS011;59039;52.108;19.942;2024-02-23T14:15:22;60.60;;;41.60;;
60919;SDS011;59039;52.108;19.942;2024-02-23T14:17:47;140.30;;;75.00;;
60919;SDS011;59039;52.108;19.942;2024-02-23T14:20:13;186.50;;;82.20;;
60919;SDS011;59039;52.108;19.942;2024-02-23T14:22:38;147.50;;;63.50;;
60919;SDS011;59039;52.108;19.942;2024-02-23T14:25:04;141.10;;;63.00;;
60919;SDS011;59039;52.108;19.942;2024-02-23T14:27:30;170.00;;;66.40;;
60919;SDS011;59039;52.108;19.942;2024-02-23T14:29:55;222.50;;;83.50;;
60919;SDS011;59039;52.108;19.942;2024-02-23T14:32:20;235.80;;;83.00;;
60919;SDS011;59039;52.108;19.942;2024-02-23T14:34:45;199.60;;;75.00;;
60919;SDS011;59039;52.108;19.942;2024-02-23T14:37:11;167.30;;;64.20;;
60919;SDS011;59039;52.108;19.942;2024-02-23T14:39:36;159.60;;;61.90;;
60919;SDS011;59039;52.108;19.942;2024-02-23T14:42:01;141.90;;;58.40;;
60919;SDS011;59039;52.108;19.942;2024-02-23T14:44:27;114.60;;;52.20;;
60919;SDS011;59039;52.108;19.942;2024-02-23T14:46:52;93.50;;;49.40;;
60919;SDS011;59039;52.108;19.942;2024-02-23T14:49:18;90.70;;;56.70;;
60919;SDS011;59039;52.108;19.942;2024-02-23T14:51:43;94.40;;;58.00;;
60919;SDS011;59039;52.108;19.942;2024-02-23T14:54:09;115.20;;;68.80;;
60919;SDS011;59039;52.108;19.942;2024-02-23T14:56:34;120.00;;;69.50;;
60919;SDS011;59039;52.108;19.942;2024-02-23T14:58:59;137.60;;;74.30;;
60919;SDS011;59039;52.108;19.942;2024-02-23T15:01:25;94.30;;;54.60;;
60919;SDS011;59039;52.108;19.942;2024-02-23T15:03:50;103.30;;;61.10;;
60919;SDS011;59039;52.108;19.942;2024-02-23T15:06:15;95.90;;;56.30;;
60919;SDS011;59039;52.108;19.942;2024-02-23T15:08:40;111.50;;;62.70;;
60919;SDS011;59039;52.108;19.942;2024-02-23T15:11:05;109.00;;;61.80;;
60919;SDS011;59039;52.108;19.942;2024-02-23T15:13:31;112.30;;;61.00;;
60919;SDS011;59039;52.108;19.942;2024-02-23T15:15:56;135.70;;;62.30;;
60919;SDS011;59039;52.108;19.942;2024-02-23T15:18:21;140.40;;;61.40;;
60919;SDS011;59039;52.108;19.942;2024-02-23T15:20:46;97.40;;;46.10;;
60919;SDS011;59039;52.108;19.942;2024-02-23T15:23:11;128.60;;;63.10;;
60919;SDS011;59039;52.108;19.942;2024-02-23T15:25:37;132.50;;;66.20;;
60919;SDS011;59039;52.108;19.942;2024-02-23T15:28:02;149.30;;;71.80;;
60919;SDS011;59039;52.108;19.942;2024-02-23T15:30:27;131.30;;;75.80;;
60919;SDS011;59039;52.108;19.942;2024-02-23T15:32:52;108.60;;;60.10;;
60919;SDS011;59039;52.108;19.942;2024-02-23T15:35:18;106.00;;;57.20;;
60919;SDS011;59039;52.108;19.942;2024-02-23T15:37:43;95.60;;;62.30;;
60919;SDS011;59039;52.108;19.942;2024-02-23T15:40:08;90.60;;;50.20;;
60919;SDS011;59039;52.108;19.942;2024-02-23T15:42:34;109.60;;;50.10;;
60919;SDS011;59039;52.108;19.942;2024-02-23T15:45:00;89.80;;;43.50;;
60919;SDS011;59039;52.108;19.942;2024-02-23T15:47:25;86.50;;;43.00;;
60919;SDS011;59039;52.108;19.942;2024-02-23T15:49:50;76.80;;;41.00;;
60919;SDS011;59039;52.108;19.942;2024-02-23T15:52:15;93.30;;;48.30;;
60919;SDS011;59039;52.108;19.942;2024-02-23T15:54:41;67.60;;;38.10;;
60919;SDS011;59039;52.108;19.942;2024-02-23T15:57:06;62.10;;;39.90;;
60919;SDS011;59039;52.108;19.942;2024-02-23T15:59:31;63.00;;;40.50;;
60919;SDS011;59039;52.108;19.942;2024-02-23T16:01:56;69.00;;;45.80;;
60919;SDS011;59039;52.108;19.942;2024-02-23T16:04:22;85.80;;;53.40;;
60919;SDS011;59039;52.108;19.942;2024-02-23T16:06:47;98.10;;;55.90;;
60919;SDS011;59039;52.108;19.942;2024-02-23T16:09:12;94.10;;;52.50;;
60919;SDS011;59039;52.108;19.942;2024-02-23T16:11:38;83.70;;;50.50;;
60919;SDS011;59039;52.108;19.942;2024-02-23T16:14:09;79.10;;;44.30;;
60919;SDS011;59039;52.108;19.942;2024-02-23T16:16:34;82.60;;;45.40;;
60919;SDS011;59039;52.108;19.942;2024-02-23T16:18:59;67.10;;;39.20;;
60919;SDS011;59039;52.108;19.942;2024-02-23T16:21:24;63.10;;;36.60;;
60919;SDS011;59039;52.108;19.942;2024-02-23T16:23:50;54.60;;;32.80;;
60919;SDS011;59039;52.108;19.942;2024-02-23T16:26:15;55.50;;;35.90;;
60919;SDS011;59039;52.108;19.942;2024-02-23T16:28:40;78.60;;;43.40;;
60919;SDS011;59039;52.108;19.942;2024-02-23T16:31:05;209.30;;;90.20;;
60919;SDS011;59039;52.108;19.942;2024-02-23T16:33:31;124.50;;;58.40;;